• Join FlightAware (Why Join?)
  • Login
  • US Flag 
12:01PM EDT


 

Airport Tracker/Info


-or-


 

Live Flight TrackerFlight Track Log ✈ AWE3434 ✈ 12-Apr-2013 ✈ KPHL - KCMH

Flight Track Log - Related Links

Times and Time Zones

All times are in EDT time to prevent confusion due to time zone crossing. See the AWE3434 flight status page for this flight to view local times or setup timezone preferences in your user account.

Time Position Orientation Groundspeed Altitude Reporting Facility
EDT Latitude Longitude Course Direction KTS MPH feet Rate Location/Type
02:03PM 39.8756 -75.2206 270° West 139 160 900  Level FAA TRACON SMA TRACON (SMA)
02:03PM 39.8803 -75.2028 71° East 155 178 1,700 1,500 Climbing FAA TRACON SMA TRACON (SMA)
02:03PM 39.8867 -75.1842 66° East 204 235 1,900 1,200 Climbing FAA TRACON SMA TRACON (SMA)
02:04PM 39.9039 -75.1614 45° Northeast 258 297 2,500 1,620 Climbing FAA TRACON SMA TRACON (SMA)
02:04PM 39.9253 -75.1592 North 264 304 3,000 2,820 Climbing FAA TRACON SMA TRACON (SMA)
02:04PM 39.9539 -75.1642 352° North 271 312 4,400 3,600 Climbing FAA TRACON SMA TRACON (SMA)
02:05PM 39.9064 -75.6255 288° West  Level FlightAware Approximate
02:05PM 39.9783 -75.1667 356° North 276 318 5,400  Level FAA TRACON SMA TRACON (SMA)
02:05PM 40.0008 -75.1781 339° North 279 321 6,500 3,300 Climbing FAA TRACON SMA TRACON (SMA)
02:05PM 40.0119 -75.2094 295° West 251 289 7,600 3,420 Climbing FAA TRACON SMA TRACON (SMA)
02:06PM 39.9016 -75.7568 258° West  Level FlightAware Approximate
02:06PM 40.0094 -75.2389 264° West 249 287 8,800  Level FAA TRACON SMA TRACON (SMA)
02:06PM 40.0031 -75.2669 253° West 262 302 9,700 1,800 Climbing FAA TRACON SMA TRACON (SMA)
02:06PM 39.9958 -75.3014 255° West 258 297 10,000 420 Climbing FAA TRACON SMA TRACON (SMA)
02:07PM 39.9001 -75.8756 270° West  Level FlightAware Approximate
02:07PM 39.9897 -75.3314 255° West 276 318 10,000  Level FAA TRACON SMA TRACON (SMA)
02:07PM 39.9833 -75.3611 254° West 277 319 10,000  Level FAA TRACON SMA TRACON (SMA)
02:07PM 39.9756 -75.3975 254° West 275 316 10,000  Level FAA TRACON SMA TRACON (SMA)
02:08PM 39.9000 -75.9947 270° West  Level FlightAware Approximate
02:08PM 39.9689 -75.4264 253° West 276 318 10,000  Level FAA TRACON SMA TRACON (SMA)
02:08PM 39.9631 -75.4572 256° West 278 320 10,000  Level FAA TRACON SMA TRACON (SMA)
02:08PM 39.9550 -75.4947 254° West 279 321 10,000  Level FAA TRACON SMA TRACON (SMA)
02:09PM 39.9489 -75.5236 255° West 279 321 10,000 420 Level FAA TRACON SMA TRACON (SMA)
02:09PM 39.9422 -75.5550 255° West 280 322 10,300 1,620 Climbing FAA TRACON SMA TRACON (SMA)
02:09PM 39.9381 -75.5942 262° West 283 326 11,100 2,220 Climbing FAA TRACON SMA TRACON (SMA)
02:10PM 39.9400 -75.6258 275° West 291 335 11,800 1,920 Climbing FAA TRACON SMA TRACON (SMA)
02:10PM 39.9408 -75.6575 272° West 289 333 12,400 2,400 Climbing FAA TRACON SMA TRACON (SMA)
02:10PM 39.9425 -75.6983 273° West 291 335 13,400 2,700 Climbing FAA TRACON SMA TRACON (SMA)
02:11PM 39.9439 -75.7306 273° West 292 336 14,200 2,400 Climbing FAA TRACON SMA TRACON (SMA)
02:11PM 39.9453 -75.7642 273° West 297 342 15,000 2,700 Climbing FAA TRACON SMA TRACON (SMA)
02:11PM 39.9458 -75.8050 271° West 300 345 16,000 2,520 Climbing FAA TRACON SMA TRACON (SMA)
02:12PM 39.9478 -75.8408 274° West 304 350 16,700 2,400 Climbing FAA TRACON SMA TRACON (SMA)
02:12PM 39.9489 -75.8753 272° West 306 352 17,600 2,400 Climbing FAA TRACON SMA TRACON (SMA)
02:12PM 39.9497 -75.8925 274° West 308 354 18,300 2,220 Climbing FAA TRACON SMA TRACON (SMA)
02:15PM 39.9619 -76.1875 273° West 324 373 23,600 2,100 Climbing New York Center
02:16PM 39.9611 -76.2986 269° West 335 386 25,300 1,560 Climbing New York Center
02:17PM 39.9656 -76.4236 273° West 346 398 26,800 1,440 Climbing New York Center
02:18PM 39.9697 -76.5539 272° West 357 411 28,300 1,440 Climbing New York Center
02:19PM 39.9731 -76.6978 272° West 365 420 29,700 840 Climbing New York Center
02:20PM 39.9756 -76.8119 272° West 365 420 30,000 120 Climbing New York Center
02:21PM 39.9792 -76.9422 272° West 365 420 30,000  Level New York Center
02:22PM 39.9825 -77.0753 272° West 365 420 30,000  Level New York Center
02:23PM 39.9861 -77.2003 272° West 365 420 30,000  Level New York Center
02:24PM 39.9917 -77.3308 273° West 365 420 30,000  Level New York Center
02:26PM 39.9956 -77.6372 271° West 358 412 30,000  Level Cleveland Center
02:27PM 39.9989 -77.7644 272° West 358 412 30,000  Level Cleveland Center
02:28PM 40.0019 -77.8917 272° West 358 412 30,000  Level Cleveland Center
02:29PM 40.0031 -78.0244 271° West 358 412 30,000  Level Cleveland Center
02:30PM 40.0036 -78.1519 270° West 358 412 30,000  Level Cleveland Center
02:31PM 40.0064 -78.2767 272° West 358 412 30,000  Level Cleveland Center
02:32PM 40.0089 -78.4039 272° West 358 412 30,000  Level Cleveland Center
02:33PM 40.0111 -78.5311 271° West 358 412 30,000  Level Cleveland Center
02:34PM 40.0111 -78.6531 270° West 358 412 30,000  Level Cleveland Center
02:35PM 40.0111 -78.7778 270° West 353 406 30,000  Level Cleveland Center
02:36PM 40.0150 -78.8997 272° West 347 399 30,000  Level Cleveland Center
02:37PM 40.0189 -79.0244 272° West 347 399 30,000  Level Cleveland Center
02:38PM 40.0186 -79.1464 270° West 347 399 30,000  Level Cleveland Center
02:39PM 40.0200 -79.2711 271° West 347 399 30,000  Level Cleveland Center
02:40PM 40.0214 -79.3958 271° West 347 399 30,000  Level Cleveland Center
02:41PM 40.0206 -79.5178 270° West 347 399 30,000  Level Cleveland Center
02:42PM 40.0217 -79.6422 271° West 347 399 30,000  Level Cleveland Center
02:43PM 40.0225 -79.7644 271° West 347 399 30,000  Level Cleveland Center
02:44PM 40.0214 -79.8864 269° West 347 399 30,000 -540 Level Cleveland Center
02:45PM 40.0219 -80.0083 270° West 347 399 29,000 -1,140 Descending Cleveland Center
02:46PM 40.0225 -80.1275 270° West 347 399 27,800 -1,200 Descending Cleveland Center
02:47PM 40.0228 -80.2497 270° West 342 394 26,600 -1,200 Descending Cleveland Center
02:48PM 40.0211 -80.3689 269° West 342 394 25,400 -1,200 Descending Cleveland Center
02:49PM 40.0233 -80.4856 271° West 332 382 24,200 -1,200 Descending Cleveland Center
02:50PM 40.0214 -80.6019 269° West 327 376 23,100 -1,140 Descending Cleveland Center
02:51PM 40.0211 -80.7158 270° West 327 376 22,000 -600 Descending Cleveland Center
02:52PM 40.0169 -80.8269 267° West 327 376 22,000  Level Cleveland Center
02:53PM 39.9978 -80.9328 257° West 316 364 22,000  Level Cleveland Center
02:55PM 39.9522 -81.1486 255° West 303 349 22,000  Level Indianapolis Center
02:56PM 39.9317 -81.2542 256° West 300 345 22,000 -60 Level Indianapolis Center
02:57PM 39.9114 -81.3603 256° West 301 346 21,900 -1,020 Descending Indianapolis Center
02:58PM 39.8864 -81.4822 255° West 299 344 20,000 -1,740 Descending Indianapolis Center
02:59PM 39.8667 -81.5872 256° West 298 343 18,400 -1,620 Descending Indianapolis Center
03:00PM 39.8456 -81.6933 256° West 301 346 16,700 -1,560 Descending Indianapolis Center
03:01PM 39.8253 -81.7961 256° West 293 337 15,200 -1,500 Descending Indianapolis Center
03:02PM 39.8039 -81.8975 255° West 289 333 13,700 -1,560 Descending Indianapolis Center
03:03PM 39.7878 -81.9772 255° West 280 322 12,600 -1,560 Descending Indianapolis Center
03:04PM 39.7869 -82.0964 270° West 302 348 10,800 -1,140 Descending Indianapolis Center
03:05PM 39.8425 -82.1781 312° West 310 357 10,100 -900 Descending Indianapolis Center
03:06PM 39.8942 -82.2567 311° West 283 326 9,000 -1,260 Descending Indianapolis Center
03:07PM 39.9400 -82.3267 311° West 254 292 7,600 -1,860 Descending Indianapolis Center
03:08PM 39.9725 -82.4092 297° West 241 277 5,300 -1,980 Descending Indianapolis Center
03:08PM 39.9750 -82.4181 290° West 243 280 5,100 -1,200 Descending Indianapolis Center
03:09PM 39.9794 -82.4969 274° West 243 280 4,100 -1,080 Descending Indianapolis Center
03:09PM 39.9808 -82.5061 281° West 242 278 4,000 -120 Descending Indianapolis Center
03:10PM 39.9828 -82.5733 272° West 202 232 4,000  Level Indianapolis Center
03:10PM 39.9839 -82.5939 274° West 217 250 4,000  Level Indianapolis Center
03:11PM 39.9867 -82.6444 274° West 191 220 4,000  Level Indianapolis Center
03:12PM 39.9889 -82.6642 278° West 201 231 4,000 -540 Level Indianapolis Center
03:12PM 39.9922 -82.7186 275° West 175 201 3,400 -780 Descending Indianapolis Center